sensor_id;sensor_type;location;lat;lon;timestamp;P1;durP1;ratioP1;P2;durP2;ratioP2
20375;SDS011;10347;51.828;6.466;2023-05-23T00:00:25;3.80;;;3.45;;
20375;SDS011;10347;51.828;6.466;2023-05-23T00:02:50;4.38;;;3.63;;
20375;SDS011;10347;51.828;6.466;2023-05-23T00:05:16;3.58;;;3.28;;
20375;SDS011;10347;51.828;6.466;2023-05-23T00:07:43;3.63;;;3.30;;
20375;SDS011;10347;51.828;6.466;2023-05-23T00:10:09;4.07;;;3.50;;
20375;SDS011;10347;51.828;6.466;2023-05-23T00:12:35;4.82;;;3.63;;
20375;SDS011;10347;51.828;6.466;2023-05-23T00:15:06;3.80;;;3.40;;
20375;SDS011;10347;51.828;6.466;2023-05-23T00:17:33;3.53;;;3.22;;
20375;SDS011;10347;51.828;6.466;2023-05-23T00:20:01;4.20;;;3.33;;
20375;SDS011;10347;51.828;6.466;2023-05-23T00:22:28;5.38;;;3.58;;
20375;SDS011;10347;51.828;6.466;2023-05-23T00:24:53;6.25;;;4.03;;
20375;SDS011;10347;51.828;6.466;2023-05-23T00:27:21;4.35;;;3.95;;
20375;SDS011;10347;51.828;6.466;2023-05-23T00:29:47;4.78;;;3.97;;
20375;SDS011;10347;51.828;6.466;2023-05-23T00:32:13;4.10;;;3.63;;
20375;SDS011;10347;51.828;6.466;2023-05-23T00:34:38;4.15;;;3.75;;
20375;SDS011;10347;51.828;6.466;2023-05-23T00:37:04;5.07;;;4.32;;
20375;SDS011;10347;51.828;6.466;2023-05-23T00:39:29;5.25;;;3.70;;
20375;SDS011;10347;51.828;6.466;2023-05-23T00:41:55;4.65;;;4.15;;
20375;SDS011;10347;51.828;6.466;2023-05-23T00:44:21;5.57;;;4.10;;
20375;SDS011;10347;51.828;6.466;2023-05-23T00:46:48;3.90;;;3.50;;
20375;SDS011;10347;51.828;6.466;2023-05-23T00:49:17;4.60;;;4.07;;
20375;SDS011;10347;51.828;6.466;2023-05-23T00:51:44;5.63;;;4.20;;
20375;SDS011;10347;51.828;6.466;2023-05-23T00:54:10;5.78;;;4.80;;
20375;SDS011;10347;51.828;6.466;2023-05-23T00:56:36;7.53;;;5.05;;
20375;SDS011;10347;51.828;6.466;2023-05-23T00:59:02;5.82;;;4.75;;
20375;SDS011;10347;51.828;6.466;2023-05-23T01:01:29;5.22;;;4.50;;
20375;SDS011;10347;51.828;6.466;2023-05-23T01:03:55;7.80;;;4.90;;
20375;SDS011;10347;51.828;6.466;2023-05-23T01:06:20;7.80;;;5.07;;
20375;SDS011;10347;51.828;6.466;2023-05-23T01:08:46;5.25;;;4.30;;
20375;SDS011;10347;51.828;6.466;2023-05-23T01:14:35;4.55;;;4.07;;
20375;SDS011;10347;51.828;6.466;2023-05-23T01:17:09;6.93;;;4.53;;
20375;SDS011;10347;51.828;6.466;2023-05-23T01:19:54;6.68;;;4.50;;
20375;SDS011;10347;51.828;6.466;2023-05-23T01:25:30;6.07;;;4.40;;
20375;SDS011;10347;51.828;6.466;2023-05-23T01:28:36;6.15;;;4.40;;
20375;SDS011;10347;51.828;6.466;2023-05-23T01:31:07;6.78;;;4.50;;
20375;SDS011;10347;51.828;6.466;2023-05-23T01:33:35;6.55;;;4.53;;
20375;SDS011;10347;51.828;6.466;2023-05-23T01:36:04;7.78;;;4.57;;
20375;SDS011;10347;51.828;6.466;2023-05-23T01:38:30;7.13;;;4.63;;
20375;SDS011;10347;51.828;6.466;2023-05-23T01:40:56;7.88;;;4.82;;
20375;SDS011;10347;51.828;6.466;2023-05-23T01:43:22;6.63;;;4.57;;
20375;SDS011;10347;51.828;6.466;2023-05-23T01:45:50;7.05;;;4.85;;
20375;SDS011;10347;51.828;6.466;2023-05-23T01:48:17;9.90;;;4.90;;
20375;SDS011;10347;51.828;6.466;2023-05-23T01:50:45;9.50;;;5.43;;
20375;SDS011;10347;51.828;6.466;2023-05-23T01:53:11;7.93;;;5.10;;
20375;SDS011;10347;51.828;6.466;2023-05-23T01:55:39;7.95;;;5.28;;
20375;SDS011;10347;51.828;6.466;2023-05-23T01:58:06;8.35;;;5.05;;
20375;SDS011;10347;51.828;6.466;2023-05-23T02:00:32;8.23;;;5.10;;
20375;SDS011;10347;51.828;6.466;2023-05-23T02:02:58;11.60;;;5.63;;
20375;SDS011;10347;51.828;6.466;2023-05-23T02:05:23;8.45;;;4.97;;
20375;SDS011;10347;51.828;6.466;2023-05-23T02:07:49;5.93;;;4.07;;
20375;SDS011;10347;51.828;6.466;2023-05-23T02:10:15;5.78;;;3.47;;
20375;SDS011;10347;51.828;6.466;2023-05-23T02:12:41;5.90;;;3.80;;
20375;SDS011;10347;51.828;6.466;2023-05-23T02:15:06;5.80;;;3.92;;
20375;SDS011;10347;51.828;6.466;2023-05-23T02:17:33;7.18;;;3.92;;
20375;SDS011;10347;51.828;6.466;2023-05-23T02:19:58;4.90;;;3.65;;
20375;SDS011;10347;51.828;6.466;2023-05-23T02:22:24;7.32;;;4.57;;
20375;SDS011;10347;51.828;6.466;2023-05-23T02:24:50;5.63;;;4.28;;
20375;SDS011;10347;51.828;6.466;2023-05-23T02:27:16;6.13;;;4.55;;
20375;SDS011;10347;51.828;6.466;2023-05-23T02:29:42;8.25;;;5.13;;
20375;SDS011;10347;51.828;6.466;2023-05-23T02:32:07;7.57;;;5.03;;
20375;SDS011;10347;51.828;6.466;2023-05-23T02:34:33;5.47;;;4.40;;
20375;SDS011;10347;51.828;6.466;2023-05-23T02:36:58;6.57;;;4.07;;
20375;SDS011;10347;51.828;6.466;2023-05-23T02:39:24;7.60;;;4.63;;
20375;SDS011;10347;51.828;6.466;2023-05-23T02:41:50;6.50;;;4.35;;
20375;SDS011;10347;51.828;6.466;2023-05-23T02:44:16;7.53;;;5.25;;
20375;SDS011;10347;51.828;6.466;2023-05-23T02:46:43;9.10;;;5.32;;
20375;SDS011;10347;51.828;6.466;2023-05-23T02:49:09;7.55;;;4.43;;
20375;SDS011;10347;51.828;6.466;2023-05-23T02:51:35;7.78;;;5.22;;
20375;SDS011;10347;51.828;6.466;2023-05-23T02:54:00;8.52;;;5.18;;
20375;SDS011;10347;51.828;6.466;2023-05-23T02:56:26;7.97;;;4.90;;
20375;SDS011;10347;51.828;6.466;2023-05-23T02:58:52;5.55;;;4.50;;
20375;SDS011;10347;51.828;6.466;2023-05-23T03:01:17;8.63;;;5.18;;
20375;SDS011;10347;51.828;6.466;2023-05-23T03:03:43;10.85;;;5.72;;
20375;SDS011;10347;51.828;6.466;2023-05-23T03:06:09;6.85;;;4.55;;
20375;SDS011;10347;51.828;6.466;2023-05-23T03:08:38;8.63;;;5.03;;
20375;SDS011;10347;51.828;6.466;2023-05-23T03:11:04;11.25;;;5.03;;
20375;SDS011;10347;51.828;6.466;2023-05-23T03:13:30;6.82;;;4.60;;
20375;SDS011;10347;51.828;6.466;2023-05-23T03:15:55;7.45;;;5.10;;
20375;SDS011;10347;51.828;6.466;2023-05-23T03:18:21;8.48;;;5.47;;
20375;SDS011;10347;51.828;6.466;2023-05-23T03:20:47;10.13;;;5.57;;
20375;SDS011;10347;51.828;6.466;2023-05-23T03:23:12;9.80;;;5.60;;
20375;SDS011;10347;51.828;6.466;2023-05-23T03:25:38;7.85;;;5.57;;
20375;SDS011;10347;51.828;6.466;2023-05-23T03:28:03;8.32;;;5.85;;
20375;SDS011;10347;51.828;6.466;2023-05-23T03:30:29;15.57;;;6.97;;
20375;SDS011;10347;51.828;6.466;2023-05-23T03:32:54;11.65;;;6.60;;
20375;SDS011;10347;51.828;6.466;2023-05-23T03:35:20;10.70;;;6.53;;
20375;SDS011;10347;51.828;6.466;2023-05-23T03:37:45;10.55;;;6.50;;
20375;SDS011;10347;51.828;6.466;2023-05-23T03:40:11;10.48;;;6.88;;
20375;SDS011;10347;51.828;6.466;2023-05-23T03:42:37;9.43;;;6.47;;
20375;SDS011;10347;51.828;6.466;2023-05-23T03:45:03;12.52;;;7.57;;
20375;SDS011;10347;51.828;6.466;2023-05-23T03:47:29;13.98;;;6.32;;
20375;SDS011;10347;51.828;6.466;2023-05-23T03:49:55;14.73;;;8.10;;
20375;SDS011;10347;51.828;6.466;2023-05-23T03:52:21;10.65;;;6.70;;
20375;SDS011;10347;51.828;6.466;2023-05-23T03:54:46;10.57;;;7.18;;
20375;SDS011;10347;51.828;6.466;2023-05-23T03:57:12;12.05;;;6.38;;
20375;SDS011;10347;51.828;6.466;2023-05-23T03:59:38;9.35;;;6.05;;
20375;SDS011;10347;51.828;6.466;2023-05-23T04:02:03;9.77;;;6.00;;
20375;SDS011;10347;51.828;6.466;2023-05-23T04:04:29;8.00;;;5.78;;
20375;SDS011;10347;51.828;6.466;2023-05-23T04:06:56;9.45;;;5.70;;
20375;SDS011;10347;51.828;6.466;2023-05-23T04:09:22;10.68;;;6.25;;
20375;SDS011;10347;51.828;6.466;2023-05-23T04:11:47;17.73;;;8.70;;
20375;SDS011;10347;51.828;6.466;2023-05-23T04:14:13;10.60;;;7.10;;
20375;SDS011;10347;51.828;6.466;2023-05-23T04:16:39;11.55;;;6.70;;
20375;SDS011;10347;51.828;6.466;2023-05-23T04:19:08;12.27;;;6.90;;
20375;SDS011;10347;51.828;6.466;2023-05-23T04:21:34;10.82;;;6.82;;
20375;SDS011;10347;51.828;6.466;2023-05-23T04:24:00;9.65;;;6.63;;
20375;SDS011;10347;51.828;6.466;2023-05-23T04:26:26;11.60;;;6.82;;
20375;SDS011;10347;51.828;6.466;2023-05-23T04:28:51;11.30;;;7.40;;
20375;SDS011;10347;51.828;6.466;2023-05-23T04:31:18;12.20;;;6.78;;
20375;SDS011;10347;51.828;6.466;2023-05-23T04:33:47;11.02;;;6.75;;
20375;SDS011;10347;51.828;6.466;2023-05-23T04:36:13;13.05;;;7.43;;
20375;SDS011;10347;51.828;6.466;2023-05-23T04:38:39;15.18;;;7.72;;
20375;SDS011;10347;51.828;6.466;2023-05-23T04:41:05;15.88;;;7.70;;
20375;SDS011;10347;51.828;6.466;2023-05-23T04:43:34;12.00;;;6.65;;
20375;SDS011;10347;51.828;6.466;2023-05-23T04:46:01;16.33;;;7.85;;
20375;SDS011;10347;51.828;6.466;2023-05-23T04:48:27;13.10;;;6.63;;
20375;SDS011;10347;51.828;6.466;2023-05-23T04:50:53;11.07;;;7.15;;
20375;SDS011;10347;51.828;6.466;2023-05-23T04:53:20;9.27;;;6.38;;
20375;SDS011;10347;51.828;6.466;2023-05-23T04:55:46;11.48;;;7.10;;
20375;SDS011;10347;51.828;6.466;2023-05-23T04:58:12;12.43;;;6.63;;
20375;SDS011;10347;51.828;6.466;2023-05-23T05:00:37;16.52;;;7.30;;
20375;SDS011;10347;51.828;6.466;2023-05-23T05:03:03;13.48;;;7.45;;
20375;SDS011;10347;51.828;6.466;2023-05-23T05:05:28;14.77;;;7.30;;
20375;SDS011;10347;51.828;6.466;2023-05-23T05:07:54;11.18;;;6.70;;
20375;SDS011;10347;51.828;6.466;2023-05-23T05:10:20;12.57;;;6.18;;
20375;SDS011;10347;51.828;6.466;2023-05-23T05:12:45;12.85;;;7.38;;
20375;SDS011;10347;51.828;6.466;2023-05-23T05:15:13;10.98;;;6.32;;
20375;SDS011;10347;51.828;6.466;2023-05-23T05:17:42;13.98;;;6.50;;
20375;SDS011;10347;51.828;6.466;2023-05-23T05:20:08;13.38;;;6.25;;
20375;SDS011;10347;51.828;6.466;2023-05-23T05:22:37;12.57;;;6.40;;
20375;SDS011;10347;51.828;6.466;2023-05-23T05:25:07;10.05;;;5.75;;
20375;SDS011;10347;51.828;6.466;2023-05-23T05:27:34;9.60;;;5.75;;
20375;SDS011;10347;51.828;6.466;2023-05-23T05:30:02;11.77;;;5.60;;
20375;SDS011;10347;51.828;6.466;2023-05-23T05:32:31;17.20;;;6.95;;
20375;SDS011;10347;51.828;6.466;2023-05-23T05:34:57;12.35;;;5.97;;
20375;SDS011;10347;51.828;6.466;2023-05-23T05:37:23;10.52;;;5.80;;
20375;SDS011;10347;51.828;6.466;2023-05-23T05:39:49;12.05;;;6.20;;
20375;SDS011;10347;51.828;6.466;2023-05-23T05:42:15;10.93;;;6.35;;
20375;SDS011;10347;51.828;6.466;2023-05-23T05:44:40;15.20;;;5.78;;
20375;SDS011;10347;51.828;6.466;2023-05-23T05:47:06;11.05;;;6.05;;
20375;SDS011;10347;51.828;6.466;2023-05-23T05:49:31;10.52;;;6.10;;
20375;SDS011;10347;51.828;6.466;2023-05-23T05:51:57;11.68;;;5.60;;
20375;SDS011;10347;51.828;6.466;2023-05-23T05:54:23;13.70;;;5.75;;
20375;SDS011;10347;51.828;6.466;2023-05-23T05:56:48;11.27;;;6.30;;
20375;SDS011;10347;51.828;6.466;2023-05-23T05:59:14;17.52;;;7.15;;
20375;SDS011;10347;51.828;6.466;2023-05-23T06:01:40;14.80;;;6.47;;
20375;SDS011;10347;51.828;6.466;2023-05-23T06:04:05;10.73;;;6.28;;
20375;SDS011;10347;51.828;6.466;2023-05-23T06:06:31;14.07;;;6.47;;
20375;SDS011;10347;51.828;6.466;2023-05-23T06:08:56;12.38;;;6.10;;
20375;SDS011;10347;51.828;6.466;2023-05-23T06:11:22;11.95;;;6.70;;
20375;SDS011;10347;51.828;6.466;2023-05-23T06:13:48;19.48;;;8.52;;
20375;SDS011;10347;51.828;6.466;2023-05-23T06:16:13;16.48;;;8.10;;
20375;SDS011;10347;51.828;6.466;2023-05-23T06:18:39;21.55;;;8.23;;
20375;SDS011;10347;51.828;6.466;2023-05-23T06:21:05;21.55;;;7.15;;
20375;SDS011;10347;51.828;6.466;2023-05-23T06:23:30;19.05;;;6.82;;
20375;SDS011;10347;51.828;6.466;2023-05-23T06:25:56;13.02;;;6.38;;
20375;SDS011;10347;51.828;6.466;2023-05-23T06:28:23;13.63;;;6.57;;
20375;SDS011;10347;51.828;6.466;2023-05-23T06:30:49;13.00;;;6.22;;
20375;SDS011;10347;51.828;6.466;2023-05-23T06:33:14;12.65;;;6.57;;
20375;SDS011;10347;51.828;6.466;2023-05-23T06:35:41;14.80;;;5.80;;
20375;SDS011;10347;51.828;6.466;2023-05-23T06:38:06;12.98;;;6.10;;
20375;SDS011;10347;51.828;6.466;2023-05-23T06:40:32;14.57;;;5.88;;
20375;SDS011;10347;51.828;6.466;2023-05-23T06:42:57;14.20;;;5.90;;
20375;SDS011;10347;51.828;6.466;2023-05-23T06:45:23;13.00;;;6.35;;
20375;SDS011;10347;51.828;6.466;2023-05-23T06:47:48;13.63;;;5.63;;
20375;SDS011;10347;51.828;6.466;2023-05-23T06:50:14;13.77;;;5.47;;
20375;SDS011;10347;51.828;6.466;2023-05-23T06:52:43;12.30;;;5.43;;
20375;SDS011;10347;51.828;6.466;2023-05-23T06:55:10;17.70;;;6.43;;
20375;SDS011;10347;51.828;6.466;2023-05-23T06:57:38;17.40;;;5.65;;
20375;SDS011;10347;51.828;6.466;2023-05-23T07:00:04;8.20;;;4.88;;
20375;SDS011;10347;51.828;6.466;2023-05-23T07:02:30;21.75;;;6.47;;
20375;SDS011;10347;51.828;6.466;2023-05-23T07:04:55;11.40;;;6.40;;
20375;SDS011;10347;51.828;6.466;2023-05-23T07:07:21;15.00;;;5.93;;
20375;SDS011;10347;51.828;6.466;2023-05-23T07:09:46;12.25;;;6.32;;
20375;SDS011;10347;51.828;6.466;2023-05-23T07:12:12;11.27;;;5.80;;
20375;SDS011;10347;51.828;6.466;2023-05-23T07:14:37;11.98;;;5.78;;
20375;SDS011;10347;51.828;6.466;2023-05-23T07:17:04;15.45;;;6.88;;
20375;SDS011;10347;51.828;6.466;2023-05-23T07:19:30;11.40;;;5.75;;
20375;SDS011;10347;51.828;6.466;2023-05-23T07:21:55;17.58;;;6.45;;
20375;SDS011;10347;51.828;6.466;2023-05-23T07:24:21;16.05;;;5.20;;
20375;SDS011;10347;51.828;6.466;2023-05-23T07:26:46;11.98;;;5.22;;
20375;SDS011;10347;51.828;6.466;2023-05-23T07:29:12;13.18;;;5.72;;
20375;SDS011;10347;51.828;6.466;2023-05-23T07:31:38;22.35;;;7.57;;
20375;SDS011;10347;51.828;6.466;2023-05-23T07:34:03;12.88;;;6.32;;
20375;SDS011;10347;51.828;6.466;2023-05-23T07:36:29;13.10;;;5.72;;
20375;SDS011;10347;51.828;6.466;2023-05-23T07:38:57;11.68;;;5.03;;
20375;SDS011;10347;51.828;6.466;2023-05-23T07:41:23;10.55;;;4.82;;
20375;SDS011;10347;51.828;6.466;2023-05-23T07:43:49;14.18;;;5.15;;
20375;SDS011;10347;51.828;6.466;2023-05-23T07:46:15;14.65;;;5.57;;
20375;SDS011;10347;51.828;6.466;2023-05-23T07:48:40;13.02;;;6.00;;
20375;SDS011;10347;51.828;6.466;2023-05-23T07:51:06;11.70;;;5.15;;
20375;SDS011;10347;51.828;6.466;2023-05-23T07:53:32;10.45;;;4.88;;
20375;SDS011;10347;51.828;6.466;2023-05-23T07:55:58;16.23;;;5.70;;
20375;SDS011;10347;51.828;6.466;2023-05-23T07:58:25;16.70;;;6.65;;
20375;SDS011;10347;51.828;6.466;2023-05-23T08:00:50;16.55;;;6.47;;
20375;SDS011;10347;51.828;6.466;2023-05-23T08:03:16;8.48;;;5.15;;
20375;SDS011;10347;51.828;6.466;2023-05-23T08:05:42;13.27;;;5.30;;
20375;SDS011;10347;51.828;6.466;2023-05-23T08:08:08;13.57;;;5.45;;
20375;SDS011;10347;51.828;6.466;2023-05-23T08:10:34;12.60;;;5.75;;
20375;SDS011;10347;51.828;6.466;2023-05-23T08:12:59;15.75;;;5.93;;
20375;SDS011;10347;51.828;6.466;2023-05-23T08:15:28;10.77;;;4.97;;
20375;SDS011;10347;51.828;6.466;2023-05-23T08:17:54;18.73;;;5.60;;
20375;SDS011;10347;51.828;6.466;2023-05-23T08:20:20;14.05;;;5.00;;
20375;SDS011;10347;51.828;6.466;2023-05-23T08:22:46;12.82;;;5.20;;
20375;SDS011;10347;51.828;6.466;2023-05-23T08:25:12;17.13;;;6.60;;
20375;SDS011;10347;51.828;6.466;2023-05-23T08:27:37;20.50;;;7.72;;
20375;SDS011;10347;51.828;6.466;2023-05-23T08:30:03;12.95;;;6.22;;
20375;SDS011;10347;51.828;6.466;2023-05-23T08:32:30;16.77;;;6.43;;
20375;SDS011;10347;51.828;6.466;2023-05-23T08:34:55;12.23;;;6.10;;
20375;SDS011;10347;51.828;6.466;2023-05-23T08:37:21;11.35;;;5.30;;
20375;SDS011;10347;51.828;6.466;2023-05-23T08:39:46;15.88;;;6.93;;
20375;SDS011;10347;51.828;6.466;2023-05-23T08:42:12;15.63;;;6.82;;
20375;SDS011;10347;51.828;6.466;2023-05-23T08:44:37;12.95;;;5.43;;
20375;SDS011;10347;51.828;6.466;2023-05-23T08:47:04;13.18;;;5.30;;
20375;SDS011;10347;51.828;6.466;2023-05-23T08:49:32;17.15;;;5.60;;
20375;SDS011;10347;51.828;6.466;2023-05-23T08:52:01;10.88;;;5.15;;
20375;SDS011;10347;51.828;6.466;2023-05-23T08:54:30;13.05;;;5.97;;
20375;SDS011;10347;51.828;6.466;2023-05-23T08:56:56;10.80;;;5.28;;
20375;SDS011;10347;51.828;6.466;2023-05-23T08:59:22;9.93;;;4.75;;
20375;SDS011;10347;51.828;6.466;2023-05-23T09:01:50;10.55;;;4.88;;
20375;SDS011;10347;51.828;6.466;2023-05-23T09:04:19;9.45;;;4.72;;
20375;SDS011;10347;51.828;6.466;2023-05-23T09:06:44;11.25;;;4.45;;
20375;SDS011;10347;51.828;6.466;2023-05-23T09:09:10;9.50;;;4.50;;
20375;SDS011;10347;51.828;6.466;2023-05-23T09:11:36;8.20;;;4.57;;
20375;SDS011;10347;51.828;6.466;2023-05-23T09:14:01;18.50;;;4.93;;
20375;SDS011;10347;51.828;6.466;2023-05-23T09:16:32;8.05;;;4.20;;
20375;SDS011;10347;51.828;6.466;2023-05-23T09:19:10;11.60;;;4.40;;
20375;SDS011;10347;51.828;6.466;2023-05-23T09:21:37;9.93;;;4.60;;
20375;SDS011;10347;51.828;6.466;2023-05-23T09:24:06;15.95;;;5.88;;
20375;SDS011;10347;51.828;6.466;2023-05-23T09:26:32;15.00;;;6.60;;
20375;SDS011;10347;51.828;6.466;2023-05-23T09:28:58;10.15;;;5.00;;
20375;SDS011;10347;51.828;6.466;2023-05-23T09:31:27;9.32;;;3.45;;
20375;SDS011;10347;51.828;6.466;2023-05-23T09:33:56;11.25;;;4.45;;
20375;SDS011;10347;51.828;6.466;2023-05-23T09:36:22;9.38;;;3.72;;
20375;SDS011;10347;51.828;6.466;2023-05-23T09:38:49;8.23;;;3.50;;
20375;SDS011;10347;51.828;6.466;2023-05-23T09:41:18;8.80;;;3.45;;
20375;SDS011;10347;51.828;6.466;2023-05-23T09:43:50;4.90;;;2.55;;
20375;SDS011;10347;51.828;6.466;2023-05-23T09:46:17;10.35;;;3.28;;
20375;SDS011;10347;51.828;6.466;2023-05-23T09:48:47;7.95;;;2.95;;
20375;SDS011;10347;51.828;6.466;2023-05-23T09:51:16;5.63;;;2.63;;
20375;SDS011;10347;51.828;6.466;2023-05-23T09:53:44;11.50;;;3.90;;
20375;SDS011;10347;51.828;6.466;2023-05-23T09:56:10;8.57;;;3.58;;
20375;SDS011;10347;51.828;6.466;2023-05-23T09:58:36;13.15;;;4.28;;
20375;SDS011;10347;51.828;6.466;2023-05-23T10:01:05;11.52;;;4.00;;
20375;SDS011;10347;51.828;6.466;2023-05-23T10:03:36;11.07;;;4.38;;
20375;SDS011;10347;51.828;6.466;2023-05-23T10:06:09;11.65;;;3.70;;
20375;SDS011;10347;51.828;6.466;2023-05-23T10:08:45;11.52;;;3.60;;
20375;SDS011;10347;51.828;6.466;2023-05-23T10:11:40;11.25;;;3.22;;
20375;SDS011;10347;51.828;6.466;2023-05-23T10:14:30;9.20;;;3.30;;
20375;SDS011;10347;51.828;6.466;2023-05-23T10:17:04;10.35;;;3.90;;
20375;SDS011;10347;51.828;6.466;2023-05-23T10:22:35;19.13;;;4.85;;
20375;SDS011;10347;51.828;6.466;2023-05-23T10:25:02;9.77;;;4.03;;
20375;SDS011;10347;51.828;6.466;2023-05-23T10:27:29;16.02;;;3.92;;
20375;SDS011;10347;51.828;6.466;2023-05-23T10:29:56;15.32;;;4.60;;
20375;SDS011;10347;51.828;6.466;2023-05-23T10:32:23;10.60;;;3.80;;
20375;SDS011;10347;51.828;6.466;2023-05-23T10:37:25;11.43;;;3.50;;
20375;SDS011;10347;51.828;6.466;2023-05-23T10:40:06;13.20;;;4.43;;
20375;SDS011;10347;51.828;6.466;2023-05-23T10:45:19;12.18;;;4.53;;
20375;SDS011;10347;51.828;6.466;2023-05-23T10:47:49;15.18;;;3.83;;
20375;SDS011;10347;51.828;6.466;2023-05-23T10:50:29;16.33;;;4.40;;
20375;SDS011;10347;51.828;6.466;2023-05-23T10:53:00;11.02;;;4.35;;
20375;SDS011;10347;51.828;6.466;2023-05-23T10:55:29;12.73;;;3.70;;
20375;SDS011;10347;51.828;6.466;2023-05-23T10:58:14;7.32;;;3.10;;
20375;SDS011;10347;51.828;6.466;2023-05-23T11:00:49;11.65;;;4.40;;
20375;SDS011;10347;51.828;6.466;2023-05-23T11:03:35;8.85;;;3.70;;
20375;SDS011;10347;51.828;6.466;2023-05-23T11:09:01;10.10;;;3.28;;
20375;SDS011;10347;51.828;6.466;2023-05-23T11:14:18;10.05;;;3.20;;
20375;SDS011;10347;51.828;6.466;2023-05-23T11:16:56;8.95;;;3.95;;
20375;SDS011;10347;51.828;6.466;2023-05-23T11:19:23;13.45;;;4.38;;
20375;SDS011;10347;51.828;6.466;2023-05-23T11:25:00;12.60;;;3.90;;
20375;SDS011;10347;51.828;6.466;2023-05-23T11:32:40;15.43;;;3.38;;
20375;SDS011;10347;51.828;6.466;2023-05-23T11:35:07;10.15;;;3.50;;
20375;SDS011;10347;51.828;6.466;2023-05-23T11:37:34;10.73;;;3.55;;
20375;SDS011;10347;51.828;6.466;2023-05-23T11:40:23;16.20;;;4.38;;
20375;SDS011;10347;51.828;6.466;2023-05-23T11:42:49;8.63;;;3.80;;
20375;SDS011;10347;51.828;6.466;2023-05-23T11:45:15;12.65;;;4.53;;
20375;SDS011;10347;51.828;6.466;2023-05-23T11:47:43;18.75;;;4.20;;
20375;SDS011;10347;51.828;6.466;2023-05-23T11:50:09;10.15;;;4.03;;
20375;SDS011;10347;51.828;6.466;2023-05-23T11:52:35;11.55;;;3.42;;
20375;SDS011;10347;51.828;6.466;2023-05-23T11:55:00;15.38;;;4.05;;
20375;SDS011;10347;51.828;6.466;2023-05-23T11:57:26;10.45;;;3.63;;
20375;SDS011;10347;51.828;6.466;2023-05-23T11:59:52;13.02;;;3.67;;
20375;SDS011;10347;51.828;6.466;2023-05-23T12:02:19;13.23;;;4.60;;
20375;SDS011;10347;51.828;6.466;2023-05-23T12:04:47;7.97;;;3.65;;
20375;SDS011;10347;51.828;6.466;2023-05-23T12:07:13;10.52;;;3.65;;
20375;SDS011;10347;51.828;6.466;2023-05-23T12:09:42;9.48;;;3.40;;
20375;SDS011;10347;51.828;6.466;2023-05-23T12:12:08;13.73;;;4.07;;
20375;SDS011;10347;51.828;6.466;2023-05-23T12:14:34;12.00;;;3.92;;
20375;SDS011;10347;51.828;6.466;2023-05-23T12:16:59;9.20;;;3.33;;
20375;SDS011;10347;51.828;6.466;2023-05-23T12:19:25;11.50;;;3.90;;
20375;SDS011;10347;51.828;6.466;2023-05-23T12:21:51;8.98;;;2.90;;
20375;SDS011;10347;51.828;6.466;2023-05-23T12:29:37;14.88;;;3.97;;
20375;SDS011;10347;51.828;6.466;2023-05-23T12:32:03;12.75;;;4.28;;
20375;SDS011;10347;51.828;6.466;2023-05-23T12:34:31;12.80;;;4.53;;
20375;SDS011;10347;51.828;6.466;2023-05-23T12:36:57;12.90;;;4.05;;
20375;SDS011;10347;51.828;6.466;2023-05-23T12:39:25;13.90;;;4.93;;
20375;SDS011;10347;51.828;6.466;2023-05-23T12:41:54;12.50;;;3.80;;
20375;SDS011;10347;51.828;6.466;2023-05-23T12:44:30;7.85;;;3.20;;
20375;SDS011;10347;51.828;6.466;2023-05-23T12:46:56;7.05;;;2.58;;
20375;SDS011;10347;51.828;6.466;2023-05-23T12:49:22;5.78;;;2.70;;
20375;SDS011;10347;51.828;6.466;2023-05-23T12:51:47;12.75;;;3.75;;
20375;SDS011;10347;51.828;6.466;2023-05-23T12:54:13;9.63;;;3.53;;
20375;SDS011;10347;51.828;6.466;2023-05-23T12:56:38;8.70;;;2.83;;
20375;SDS011;10347;51.828;6.466;2023-05-23T12:59:04;8.02;;;3.35;;
20375;SDS011;10347;51.828;6.466;2023-05-23T13:01:29;9.25;;;3.03;;
20375;SDS011;10347;51.828;6.466;2023-05-23T13:03:55;10.77;;;3.80;;
20375;SDS011;10347;51.828;6.466;2023-05-23T13:06:21;15.05;;;3.92;;
20375;SDS011;10347;51.828;6.466;2023-05-23T13:08:46;11.13;;;3.50;;
20375;SDS011;10347;51.828;6.466;2023-05-23T13:11:14;10.25;;;3.58;;
20375;SDS011;10347;51.828;6.466;2023-05-23T13:13:40;7.80;;;3.08;;
20375;SDS011;10347;51.828;6.466;2023-05-23T13:16:06;13.20;;;4.93;;
20375;SDS011;10347;51.828;6.466;2023-05-23T13:18:32;9.20;;;3.75;;
20375;SDS011;10347;51.828;6.466;2023-05-23T13:20:57;9.63;;;3.17;;
20375;SDS011;10347;51.828;6.466;2023-05-23T13:23:23;5.80;;;2.85;;
20375;SDS011;10347;51.828;6.466;2023-05-23T13:25:49;7.32;;;2.65;;
20375;SDS011;10347;51.828;6.466;2023-05-23T13:28:15;7.25;;;3.60;;
20375;SDS011;10347;51.828;6.466;2023-05-23T13:30:41;9.95;;;4.10;;
20375;SDS011;10347;51.828;6.466;2023-05-23T13:33:07;10.05;;;3.50;;
20375;SDS011;10347;51.828;6.466;2023-05-23T13:35:32;7.25;;;3.30;;
20375;SDS011;10347;51.828;6.466;2023-05-23T13:37:58;8.52;;;3.58;;
20375;SDS011;10347;51.828;6.466;2023-05-23T13:40:23;9.50;;;3.60;;
20375;SDS011;10347;51.828;6.466;2023-05-23T13:42:49;12.20;;;3.47;;
20375;SDS011;10347;51.828;6.466;2023-05-23T13:45:15;11.15;;;4.10;;
20375;SDS011;10347;51.828;6.466;2023-05-23T13:47:42;13.80;;;4.30;;
20375;SDS011;10347;51.828;6.466;2023-05-23T13:50:08;14.30;;;4.38;;
20375;SDS011;10347;51.828;6.466;2023-05-23T13:52:34;16.00;;;4.45;;
20375;SDS011;10347;51.828;6.466;2023-05-23T13:55:00;14.35;;;3.58;;
20375;SDS011;10347;51.828;6.466;2023-05-23T13:57:26;8.30;;;2.47;;
20375;SDS011;10347;51.828;6.466;2023-05-23T13:59:51;5.90;;;2.28;;
20375;SDS011;10347;51.828;6.466;2023-05-23T14:02:17;10.10;;;2.83;;
20375;SDS011;10347;51.828;6.466;2023-05-23T14:04:43;10.48;;;3.25;;
20375;SDS011;10347;51.828;6.466;2023-05-23T14:07:08;6.38;;;2.45;;
20375;SDS011;10347;51.828;6.466;2023-05-23T14:09:34;12.65;;;3.78;;
20375;SDS011;10347;51.828;6.466;2023-05-23T14:11:59;8.38;;;2.75;;
20375;SDS011;10347;51.828;6.466;2023-05-23T14:14:25;8.95;;;3.85;;
20375;SDS011;10347;51.828;6.466;2023-05-23T14:16:51;9.30;;;3.08;;
20375;SDS011;10347;51.828;6.466;2023-05-23T14:19:16;7.50;;;2.70;;
20375;SDS011;10347;51.828;6.466;2023-05-23T14:21:42;9.90;;;2.80;;
20375;SDS011;10347;51.828;6.466;2023-05-23T14:24:08;9.38;;;2.85;;
20375;SDS011;10347;51.828;6.466;2023-05-23T14:26:34;9.73;;;2.53;;
20375;SDS011;10347;51.828;6.466;2023-05-23T14:28:59;9.80;;;2.83;;
20375;SDS011;10347;51.828;6.466;2023-05-23T14:31:26;7.93;;;2.33;;
20375;SDS011;10347;51.828;6.466;2023-05-23T14:33:51;7.35;;;2.80;;
20375;SDS011;10347;51.828;6.466;2023-05-23T14:36:17;13.10;;;4.22;;
20375;SDS011;10347;51.828;6.466;2023-05-23T14:38:42;11.80;;;3.22;;
20375;SDS011;10347;51.828;6.466;2023-05-23T14:41:10;10.07;;;2.85;;
20375;SDS011;10347;51.828;6.466;2023-05-23T14:43:37;6.22;;;2.70;;
20375;SDS011;10347;51.828;6.466;2023-05-23T14:46:03;12.93;;;2.92;;
20375;SDS011;10347;51.828;6.466;2023-05-23T14:48:28;8.48;;;2.47;;
20375;SDS011;10347;51.828;6.466;2023-05-23T14:50:54;8.32;;;2.67;;
20375;SDS011;10347;51.828;6.466;2023-05-23T14:53:20;11.60;;;2.85;;
20375;SDS011;10347;51.828;6.466;2023-05-23T14:55:48;12.30;;;3.30;;
20375;SDS011;10347;51.828;6.466;2023-05-23T14:58:14;11.57;;;3.50;;
20375;SDS011;10347;51.828;6.466;2023-05-23T15:00:39;9.93;;;2.83;;
20375;SDS011;10347;51.828;6.466;2023-05-23T15:03:05;9.15;;;2.88;;
20375;SDS011;10347;51.828;6.466;2023-05-23T15:05:32;11.93;;;2.70;;
20375;SDS011;10347;51.828;6.466;2023-05-23T15:07:57;7.63;;;2.70;;
20375;SDS011;10347;51.828;6.466;2023-05-23T15:10:23;8.32;;;3.00;;
20375;SDS011;10347;51.828;6.466;2023-05-23T15:12:48;5.13;;;2.22;;